createdAt,value
2022-11-09T15:15:28.511Z,26.20
2022-11-09T15:16:57.120Z,23.52
2022-11-09T15:18:26.820Z,20.00
2022-11-09T15:19:56.314Z,20.90
2022-11-09T15:21:27.237Z,18.67
2022-11-09T15:24:20.586Z,21.85
2022-11-09T15:25:42.612Z,17.58
2022-11-09T15:27:24.707Z,18.88
2022-11-09T15:28:48.239Z,21.77
2022-11-09T15:30:46.038Z,18.35
2022-11-09T15:32:10.945Z,17.35
2022-11-09T15:33:35.293Z,21.52
2022-11-09T15:34:59.799Z,18.60
2022-11-09T15:36:31.830Z,22.02
2022-11-09T15:37:55.291Z,21.05
2022-11-09T15:39:19.669Z,21.35
2022-11-09T15:40:41.761Z,18.58
2022-11-09T15:42:04.022Z,19.10
2022-11-09T15:43:27.476Z,23.13
2022-11-09T15:44:58.242Z,19.50
2022-11-09T15:46:29.444Z,20.15
2022-11-09T15:49:56.624Z,19.33
2022-11-09T15:51:10.121Z,17.80
2022-11-09T15:52:32.248Z,18.00
2022-11-09T15:53:54.424Z,18.33
2022-11-09T15:55:18.654Z,20.17
2022-11-09T15:56:41.287Z,17.15
2022-11-09T15:58:03.053Z,17.48
2022-11-09T15:59:27.850Z,18.70
2022-11-09T16:00:49.898Z,18.50
2022-11-09T16:02:12.553Z,19.33
2022-11-09T16:03:34.679Z,19.27
2022-11-09T16:04:56.907Z,17.10
2022-11-09T16:06:22.563Z,18.50
2022-11-09T16:07:52.761Z,18.25
2022-11-09T16:09:18.438Z,21.08
2022-11-09T16:10:41.996Z,18.23
2022-11-09T16:12:04.020Z,16.40
2022-11-09T16:13:25.736Z,16.75
2022-11-09T16:14:47.891Z,20.55
2022-11-09T16:16:11.830Z,13.85
2022-11-09T16:17:33.855Z,19.15
2022-11-09T16:18:57.104Z,18.85
2022-11-09T16:20:20.670Z,18.23
2022-11-09T16:21:43.508Z,20.10
2022-11-09T16:23:05.554Z,17.00
2022-11-09T16:24:36.067Z,18.42
2022-11-09T16:25:58.048Z,17.00
2022-11-09T16:27:48.297Z,17.50
2022-11-09T16:29:03.007Z,17.13
2022-11-09T16:30:24.929Z,16.88
2022-11-09T16:31:51.984Z,15.68
2022-11-09T16:33:14.761Z,16.38
2022-11-09T16:34:36.619Z,17.65
2022-11-09T16:36:04.676Z,17.35
2022-11-09T16:37:29.054Z,16.13
2022-11-09T16:38:54.450Z,18.50
2022-11-09T16:40:29.051Z,18.55
2022-11-09T16:41:52.141Z,17.10
2022-11-09T16:43:14.348Z,17.15
2022-11-09T16:44:38.647Z,17.98
2022-11-09T16:46:00.872Z,17.13
2022-11-09T16:47:24.386Z,17.85
2022-11-09T16:48:47.535Z,17.33
2022-11-09T16:50:40.195Z,17.38
2022-11-09T16:51:52.825Z,15.88
2022-11-09T16:53:26.959Z,20.15
2022-11-09T16:54:49.617Z,18.20
2022-11-09T16:56:13.643Z,18.25
2022-11-09T16:57:38.848Z,17.48
2022-11-09T16:59:01.575Z,18.15
2022-11-09T17:00:37.432Z,18.35
2022-11-09T17:02:39.022Z,19.30
2022-11-09T17:05:11.101Z,17.00
2022-11-09T17:06:34.621Z,17.40
2022-11-09T17:07:57.094Z,21.23
2022-11-09T17:09:19.347Z,18.65
2022-11-09T17:11:12.738Z,18.05
2022-11-09T17:12:33.541Z,20.08
2022-11-09T17:14:01.082Z,19.83
2022-11-09T17:15:23.413Z,21.88
2022-11-09T17:16:47.687Z,19.58
2022-11-09T17:18:13.173Z,17.30
2022-11-09T17:19:36.752Z,19.17
2022-11-09T17:21:04.391Z,18.20
2022-11-09T17:22:26.725Z,18.58
2022-11-09T17:23:51.004Z,21.30
2022-11-09T17:25:26.726Z,19.02
2022-11-09T17:26:50.510Z,19.83
2022-11-09T17:28:12.613Z,19.17
2022-11-09T17:29:35.046Z,21.90
2022-11-09T17:30:57.891Z,19.88
2022-11-09T17:32:25.272Z,19.02
2022-11-09T17:33:47.959Z,18.33
2022-11-09T17:35:16.865Z,19.00
2022-11-09T17:37:03.035Z,19.30
2022-11-09T17:38:23.649Z,20.27
2022-11-09T17:39:48.315Z,18.60
2022-11-09T17:41:39.954Z,19.40
2022-11-09T17:43:00.043Z,20.58
2022-11-09T17:44:22.251Z,19.83
2022-11-09T17:45:52.273Z,18.70
2022-11-09T17:47:14.198Z,20.60
2022-11-09T17:48:37.649Z,21.60
2022-11-09T17:49:59.673Z,18.65
2022-11-09T17:51:51.822Z,19.35
2022-11-09T17:53:21.154Z,19.70
2022-11-09T17:55:07.477Z,21.52
2022-11-09T17:56:39.979Z,20.63
2022-11-09T17:58:05.165Z,19.77
2022-11-09T17:59:28.100Z,21.42
2022-11-09T18:01:12.156Z,21.05
2022-11-09T18:02:35.800Z,20.73
2022-11-09T18:04:04.230Z,22.25
2022-11-09T18:05:28.551Z,22.85
2022-11-09T18:07:04.213Z,20.25
2022-11-09T18:08:26.376Z,23.52
2022-11-09T18:09:49.218Z,22.52
2022-11-09T18:11:12.675Z,22.42
2022-11-09T18:12:47.672Z,24.30
2022-11-09T18:14:25.874Z,23.17
2022-11-09T18:15:48.097Z,25.80
2022-11-09T18:17:10.099Z,23.83
2022-11-09T18:18:40.021Z,23.98
2022-11-09T18:20:04.600Z,21.58
2022-11-09T18:21:32.192Z,23.52
2022-11-09T18:22:55.392Z,24.13
2022-11-09T18:24:22.257Z,23.45
2022-11-09T18:25:44.833Z,23.63
2022-11-09T18:27:14.243Z,24.85
2022-11-09T18:28:37.501Z,21.90
2022-11-09T18:29:59.933Z,24.10
2022-11-09T18:31:52.439Z,25.58
2022-11-09T18:33:05.393Z,24.88
2022-11-09T18:34:28.034Z,25.27
2022-11-09T18:36:01.329Z,26.02
2022-11-09T18:37:26.830Z,26.05
2022-11-09T18:38:52.268Z,24.48
2022-11-09T18:40:16.339Z,25.15
2022-11-09T18:41:40.268Z,24.95
2022-11-09T18:43:02.709Z,25.85
2022-11-09T18:44:25.571Z,25.33
2022-11-09T18:45:55.885Z,26.10
2022-11-09T18:47:27.245Z,25.33
2022-11-09T18:48:53.536Z,24.98
2022-11-09T18:50:29.210Z,24.35
2022-11-09T18:51:51.292Z,25.85
2022-11-09T18:53:18.842Z,25.40
2022-11-09T18:54:41.597Z,25.73
2022-11-09T18:56:32.522Z,25.10
2022-11-09T18:57:54.562Z,29.08
2022-11-09T18:59:17.917Z,23.17
2022-11-09T19:01:03.542Z,26.35
2022-11-09T19:02:25.049Z,26.52
2022-11-09T19:03:59.308Z,26.98
2022-11-09T19:05:22.099Z,26.00
2022-11-09T19:06:55.743Z,25.55
2022-11-09T19:08:38.886Z,26.63
2022-11-09T19:10:01.141Z,24.33
2022-11-09T19:11:26.593Z,25.92
2022-11-09T19:12:50.311Z,23.45
2022-11-09T19:14:20.627Z,26.23
2022-11-09T19:15:44.904Z,26.75
2022-11-09T19:17:54.857Z,23.90
2022-11-09T19:18:59.896Z,25.98
2022-11-09T19:20:21.998Z,25.08
2022-11-09T19:21:51.510Z,23.02
2022-11-09T19:23:16.487Z,25.85
2022-11-09T19:24:40.364Z,26.77
2022-11-09T19:26:04.634Z,25.20
2022-11-09T19:27:30.442Z,23.55
2022-11-09T19:28:52.775Z,25.33
2022-11-09T19:30:48.600Z,25.23
2022-11-09T19:31:57.236Z,27.27
2022-11-09T19:33:19.083Z,24.75
2022-11-09T19:34:45.211Z,22.27
2022-11-09T19:37:50.100Z,25.90
2022-11-09T19:39:13.730Z,24.20
2022-11-09T19:40:39.553Z,24.95
2022-11-09T19:42:07.888Z,26.95
2022-11-09T19:43:31.330Z,22.88
2022-11-09T19:44:56.468Z,23.30
2022-11-09T19:46:19.034Z,26.45
2022-11-09T19:47:40.545Z,26.08
2022-11-09T19:49:04.309Z,25.60
2022-11-09T19:50:26.093Z,24.55
2022-11-09T19:51:49.040Z,25.85
2022-11-09T19:53:10.963Z,24.73
2022-11-09T19:54:32.982Z,26.23
2022-11-09T19:56:04.937Z,26.65
2022-11-09T19:57:26.876Z,21.35
2022-11-09T19:58:50.624Z,23.88
2022-11-09T20:00:13.180Z,26.90
2022-11-09T20:01:34.912Z,23.98
2022-11-09T20:03:00.920Z,23.20
2022-11-09T20:04:24.142Z,23.85
2022-11-09T20:05:46.182Z,22.77
2022-11-09T20:07:08.744Z,25.80
2022-11-09T20:08:34.105Z,22.63
2022-11-09T20:09:56.433Z,24.50
2022-11-09T20:11:39.027Z,24.98
2022-11-09T20:13:01.308Z,26.70
2022-11-09T20:14:23.348Z,23.05
2022-11-09T20:15:47.155Z,22.13
2022-11-09T20:17:08.859Z,25.48
2022-11-09T20:18:30.984Z,21.83
2022-11-09T20:19:53.786Z,23.48
2022-11-09T20:21:16.155Z,23.65
2022-11-09T20:22:38.287Z,24.38
2022-11-09T20:24:00.613Z,24.60
2022-11-09T20:25:22.543Z,24.08
2022-11-09T20:26:44.556Z,22.67
2022-11-09T20:28:06.209Z,22.58
2022-11-09T20:29:28.093Z,23.67
2022-11-09T20:30:50.265Z,22.83
2022-11-09T20:32:14.084Z,22.10
2022-11-09T20:33:37.628Z,21.80
2022-11-09T20:34:59.562Z,22.60
2022-11-09T20:36:21.485Z,23.42
2022-11-09T20:37:43.007Z,22.95
2022-11-09T20:39:15.143Z,21.20
2022-11-09T20:40:48.622Z,22.88
2022-11-09T20:42:11.974Z,24.17
2022-11-09T20:43:34.244Z,20.67
2022-11-09T20:45:28.218Z,22.20
2022-11-09T20:46:41.673Z,19.92
2022-11-09T20:48:47.063Z,20.08
2022-11-09T20:49:47.810Z,21.15
2022-11-09T20:51:22.719Z,20.33
2022-11-09T20:53:15.033Z,21.33
2022-11-09T20:54:29.299Z,19.95
2022-11-09T20:55:53.241Z,21.02
2022-11-09T20:57:17.590Z,20.73
2022-11-09T20:58:39.462Z,18.38
2022-11-09T21:00:01.764Z,21.23
2022-11-09T21:01:27.911Z,21.38
2022-11-09T21:02:49.735Z,20.80
2022-11-09T21:04:11.614Z,21.13
2022-11-09T21:05:36.908Z,20.25
2022-11-09T21:07:04.213Z,19.27
2022-11-09T21:08:26.733Z,22.10
2022-11-09T21:09:48.398Z,19.38
2022-11-09T21:11:15.231Z,19.38
2022-11-09T21:12:38.946Z,18.77
2022-11-09T21:14:01.323Z,18.38
2022-11-09T21:15:24.832Z,20.23
2022-11-09T21:16:47.925Z,18.30
2022-11-09T21:18:10.056Z,20.02
2022-11-09T21:19:32.178Z,19.23
2022-11-09T21:20:53.998Z,19.92
2022-11-09T21:22:15.869Z,18.60
2022-11-09T21:23:58.803Z,21.75
2022-11-09T21:25:39.034Z,18.52
2022-11-09T21:27:19.160Z,18.90
2022-11-09T21:29:13.973Z,17.60
2022-11-09T21:30:41.662Z,19.10
2022-11-09T21:32:04.571Z,18.27
2022-11-09T21:33:26.424Z,17.90
2022-11-09T21:34:48.241Z,18.05
2022-11-09T21:36:11.388Z,17.30
2022-11-09T21:37:35.864Z,19.77
2022-11-09T21:39:04.879Z,16.13
2022-11-09T21:40:56.831Z,17.27
2022-11-09T21:42:11.081Z,18.40
2022-11-09T21:43:34.436Z,17.65
2022-11-09T21:45:26.386Z,17.42
2022-11-09T21:46:39.683Z,18.00
2022-11-09T21:48:00.963Z,18.13
2022-11-09T21:49:22.399Z,21.67
2022-11-09T21:51:06.252Z,18.52
2022-11-09T21:52:25.798Z,15.73
2022-11-09T21:53:47.996Z,19.88
2022-11-09T21:55:10.161Z,18.63
2022-11-09T21:56:34.284Z,17.23
2022-11-09T21:57:55.836Z,17.92
2022-11-09T21:59:17.840Z,16.77
2022-11-09T22:00:41.261Z,17.92
2022-11-09T22:02:02.858Z,17.83
2022-11-09T22:03:24.767Z,17.10
2022-11-09T22:04:46.107Z,15.93
2022-11-09T22:06:08.953Z,16.63
2022-11-09T22:07:30.322Z,16.58
2022-11-09T22:08:52.687Z,17.13
2022-11-09T22:10:14.555Z,15.15
2022-11-09T22:11:54.838Z,17.38
2022-11-09T22:13:35.156Z,15.88
2022-11-09T22:15:37.185Z,18.48
2022-11-09T22:16:57.299Z,17.27
2022-11-09T22:18:54.038Z,18.23
2022-11-09T22:20:35.312Z,18.23
2022-11-09T22:21:58.949Z,18.00
2022-11-09T22:23:21.044Z,18.88
2022-11-09T22:24:43.021Z,17.67
2022-11-09T22:26:07.083Z,18.33
2022-11-09T22:27:43.326Z,16.52
2022-11-09T22:29:06.902Z,15.88
2022-11-09T22:30:28.395Z,18.10
2022-11-09T22:31:50.213Z,16.90
2022-11-09T22:33:12.029Z,17.88
2022-11-09T22:34:33.954Z,17.83
2022-11-09T22:36:00.581Z,17.42
2022-11-09T22:37:22.524Z,15.68
2022-11-09T22:38:45.443Z,14.98
2022-11-09T22:40:07.967Z,16.00
2022-11-09T22:41:41.457Z,17.70
2022-11-09T22:43:02.841Z,17.80
2022-11-09T22:44:39.625Z,16.52
2022-11-09T22:46:05.527Z,15.02
2022-11-09T22:47:27.550Z,14.70
2022-11-09T22:48:49.267Z,14.80
2022-11-09T22:50:11.086Z,17.45
2022-11-09T22:51:32.939Z,15.50
2022-11-09T22:53:02.336Z,15.85
2022-11-09T22:54:26.259Z,14.82
2022-11-09T22:56:11.805Z,15.23
2022-11-09T22:57:33.625Z,17.15
2022-11-09T22:58:55.433Z,15.18
2022-11-09T23:00:18.254Z,17.67
2022-11-09T23:01:39.837Z,16.90
2022-11-09T23:03:01.503Z,17.17
2022-11-09T23:04:22.808Z,16.20
2022-11-09T23:05:45.346Z,15.18
2022-11-09T23:07:06.774Z,17.08
2022-11-09T23:08:28.803Z,16.83
2022-11-09T23:09:50.084Z,14.57
2022-11-09T23:11:15.381Z,15.13
2022-11-09T23:12:37.097Z,16.05
2022-11-09T23:13:58.918Z,14.35
2022-11-09T23:15:20.837Z,14.88
2022-11-09T23:16:42.669Z,17.25
2022-11-09T23:18:22.987Z,18.58
2022-11-09T23:19:44.614Z,16.00
2022-11-09T23:21:06.391Z,18.15
2022-11-09T23:22:28.047Z,14.05
2022-11-09T23:23:50.991Z,15.60
2022-11-09T23:25:33.090Z,15.77
2022-11-09T23:26:54.761Z,15.52
2022-11-09T23:28:46.777Z,15.43
2022-11-09T23:30:36.270Z,13.77
2022-11-09T23:31:41.966Z,16.60
2022-11-09T23:33:03.680Z,17.70
2022-11-09T23:34:24.959Z,16.63
2022-11-09T23:35:47.089Z,14.55
2022-11-09T23:37:08.623Z,15.65
2022-11-09T23:38:33.896Z,15.80
2022-11-09T23:39:56.364Z,17.42
2022-11-09T23:41:22.550Z,16.80
2022-11-09T23:42:47.355Z,14.38
2022-11-09T23:44:08.665Z,15.52
2022-11-09T23:45:30.872Z,17.33
2022-11-09T23:46:52.485Z,14.80
2022-11-09T23:48:16.965Z,15.68
2022-11-09T23:49:38.289Z,15.63
2022-11-09T23:51:13.300Z,15.52
2022-11-09T23:52:35.033Z,16.17
2022-11-09T23:54:22.670Z,14.93
2022-11-09T23:55:39.645Z,13.43
2022-11-09T23:57:07.096Z,14.98
2022-11-09T23:58:30.653Z,13.45
2022-11-09T23:59:52.476Z,14.95
